Time;durP1;ratioP1;P1;durP2;ratioP2;P2;SDS_P1;SDS_P2;PMS_P1;PMS_P2;Temp;Humidity;BMP_temperature;BMP_pressure;BME280_temperature;BME280_humidity;BME280_pressure;Samples;Min_cycle;Max_cycle;Signal;HPM_P1;HPM_P2
2022/05/16 00:01:44;;;;;;;;;;;;;;;25.62;28.42;99345.06;4480120;32;35324;-85
2022/05/16 00:04:11;;;;;;;;;;;;;;;25.83;28.30;99345.87;4483400;32;34289;-85
2022/05/16 00:06:38;;;;;;;;;;;;;;;25.84;28.13;99350.28;4483261;32;33435;-85
2022/05/16 00:09:06;;;;;;;;;;;;;;;25.62;28.47;99347.72;4482517;32;35097;-85
2022/05/16 00:11:33;;;;;;;;;;;;;;;25.54;28.56;99357.81;4479652;32;34197;-85
2022/05/16 00:14:00;;;;;;;;;;;;;;;25.01;29.18;99348.62;4467877;32;34105;-85
2022/05/16 00:16:28;;;;;;;;;;;;;;;25.41;28.55;99352.19;4470185;32;33761;-88
2022/05/16 00:19:00;;;;;;;;;;;;;;;25.52;28.17;99349.91;4482506;32;33841;-85
2022/05/16 00:21:30;;;;;;;;;;;;;;;25.57;28.15;99353.25;4482112;31;34206;-85
2022/05/16 00:23:59;;;;;;;;;;;;;;;25.62;28.08;99353.87;4469266;32;34166;-84
2022/05/16 00:26:26;;;;;;;;;;;;;;;25.53;28.13;99343.66;4480731;32;33900;-85
2022/05/16 00:28:53;;;;;;;;;;;;;;;25.46;28.27;99348.41;4467658;32;35038;-84
2022/05/16 00:31:20;;;;;;;;;;;;;;;25.46;28.13;99344.91;4482321;32;34482;-84
2022/05/16 00:33:48;;;;;;;;;;;;;;;25.52;28.11;99344.59;4483571;32;33769;-85
2022/05/16 00:36:15;;;;;;;;;;;;;;;25.56;28.21;99351.50;4482403;32;33009;-85
2022/05/16 00:38:42;;;;;;;;;;;;;;;25.57;28.15;99353.25;4482347;32;33808;-84
2022/05/16 00:41:11;;;;;;;;;;;;;;;25.50;28.37;99351.78;4469368;32;35137;-86
2022/05/16 00:43:51;;;;;;;;;;;;;;;25.47;28.58;99351.94;4469278;32;33461;-84
2022/05/16 00:46:18;;;;;;;;;;;;;;;25.44;28.88;99357.38;4467748;32;33524;-85
2022/05/16 00:48:46;;;;;;;;;;;;;;;25.36;29.11;99348.88;4467651;32;34127;-85
2022/05/16 00:51:16;;;;;;;;;;;;;;;25.45;29.05;99351.13;4480155;32;35060;-87
2022/05/16 00:53:44;;;;;;;;;;;;;;;25.55;28.97;99356.88;4467406;32;34237;-87
2022/05/16 00:56:11;;;;;;;;;;;;;;;25.21;29.34;99351.28;4460562;32;33136;-85
2022/05/16 00:58:38;;;;;;;;;;;;;;;25.42;29.23;99359.22;4460890;32;35066;-84
2022/05/16 01:04:47;;;;;;;;;;;;;;;25.34;29.47;99356.03;4465222;32;33913;-84
2022/05/16 01:06:39;;;;;;;;;;;;;;;25.37;29.34;99361.22;4457580;32;33513;-84
2022/05/16 01:09:07;;;;;;;;;;;;;;;25.44;29.05;99357.38;4482193;32;33949;-84
2022/05/16 01:11:35;;;;;;;;;;;;;;;25.36;29.05;99357.72;4463103;32;34473;-86
2022/05/16 01:14:03;;;;;;;;;;;;;;;25.34;28.50;99358.69;4468141;32;34151;-85
2022/05/16 01:16:30;;;;;;;;;;;;;;;25.28;29.17;99364.28;4468033;32;32902;-84
2022/05/16 01:18:57;;;;;;;;;;;;;;;25.29;28.99;99363.34;4481569;32;33441;-84
2022/05/16 01:21:30;;;;;;;;;;;;;;;25.02;29.40;99365.41;4482745;32;35250;-85
2022/05/16 01:24:02;;;;;;;;;;;;;;;24.98;29.77;99364.66;4467709;32;34382;-84
2022/05/16 01:26:30;;;;;;;;;;;;;;;25.02;29.30;99366.25;4467299;32;33484;-85
2022/05/16 01:28:57;;;;;;;;;;;;;;;24.92;29.43;99364.91;4467136;32;33626;-84
2022/05/16 01:31:25;;;;;;;;;;;;;;;24.97;29.21;99366.47;4457440;32;34328;-84
2022/05/16 01:33:53;;;;;;;;;;;;;;;24.65;29.31;99361.66;4467304;32;34142;-86
2022/05/16 01:36:20;;;;;;;;;;;;;;;22.94;31.58;99368.97;4468038;32;31717;-85
2022/05/16 01:38:47;;;;;;;;;;;;;;;21.70;33.71;99383.41;4466931;32;32832;-84
2022/05/16 01:41:16;;;;;;;;;;;;;;;22.03;33.78;99378.91;4453116;32;34365;-85
2022/05/16 01:43:45;;;;;;;;;;;;;;;20.83;35.66;99373.44;4457663;32;34107;-84
2022/05/16 01:46:14;;;;;;;;;;;;;;;21.31;35.05;99379.19;4464360;32;33168;-85
2022/05/16 01:48:41;;;;;;;;;;;;;;;20.55;36.39;99392.59;4467677;32;34358;-85
2022/05/16 01:51:10;;;;;;;;;;;;;;;20.97;35.62;99394.19;4466868;32;34640;-84
2022/05/16 01:53:37;;;;;;;;;;;;;;;21.12;35.36;99385.88;4463845;32;33759;-85
2022/05/16 01:56:05;;;;;;;;;;;;;;;21.93;33.74;99383.59;4482071;32;34395;-85
2022/05/16 01:58:32;;;;;;;;;;;;;;;22.16;33.47;99384.72;4468260;32;33796;-85
2022/05/16 02:01:00;;;;;;;;;;;;;;;22.12;33.56;99389.19;4482362;32;34302;-85
2022/05/16 02:03:28;;;;;;;;;;;;;;;22.24;33.22;99383.59;4476812;32;34012;-85
2022/05/16 02:05:56;;;;;;;;;;;;;;;20.55;36.20;99399.63;4467813;32;34126;-85
2022/05/16 02:08:23;;;;;;;;;;;;;;;22.53;32.94;99389.69;4467297;32;34007;-86
2022/05/16 02:10:50;;;;;;;;;;;;;;;22.94;32.60;99392.78;4482436;32;35344;-86
2022/05/16 02:13:18;;;;;;;;;;;;;;;23.51;31.38;99381.91;4476592;32;33983;-84
2022/05/16 02:15:45;;;;;;;;;;;;;;;23.52;31.12;99388.06;4481608;32;33440;-86
2022/05/16 02:18:12;;;;;;;;;;;;;;;23.76;30.64;99387.22;4480033;32;33736;-85
2022/05/16 02:20:40;;;;;;;;;;;;;;;22.83;32.04;99393.97;4480553;32;34110;-85
2022/05/16 02:25:56;;;;;;;;;;;;;;;23.90;30.17;99393.75;4484205;32;34297;-85
2022/05/16 02:28:24;;;;;;;;;;;;;;;24.70;29.80;99397.66;4470222;32;34241;-85
2022/05/16 02:30:51;;;;;;;;;;;;;;;24.92;28.31;99392.28;4480182;32;34084;-85
2022/05/16 02:33:19;;;;;;;;;;;;;;;24.44;29.29;99405.81;4464142;32;34470;-85
2022/05/16 02:35:47;;;;;;;;;;;;;;;25.07;28.94;99390.78;4484002;32;33438;-85
2022/05/16 02:38:16;;;;;;;;;;;;;;;25.12;28.78;99386.19;4469192;32;32536;-86
2022/05/16 02:40:43;;;;;;;;;;;;;;;24.81;29.17;99388.38;4481897;32;35170;-85
2022/05/16 02:43:10;;;;;;;;;;;;;;;24.95;28.03;99388.66;4475781;32;33956;-85
2022/05/16 02:45:38;;;;;;;;;;;;;;;25.02;28.14;99392.78;4468559;32;34070;-85
2022/05/16 02:48:05;;;;;;;;;;;;;;;24.79;28.67;99384.94;4468456;32;32919;-85
2022/05/16 02:50:33;;;;;;;;;;;;;;;24.13;29.21;99388.44;4469252;32;34513;-85
2022/05/16 02:53:00;;;;;;;;;;;;;;;24.80;29.25;99391.97;4480587;32;33666;-85
2022/05/16 02:55:28;;;;;;;;;;;;;;;25.03;28.48;99383.03;4468452;32;33629;-84
2022/05/16 02:57:56;;;;;;;;;;;;;;;24.67;28.31;99391.63;4468542;32;34918;-87
2022/05/16 03:00:23;;;;;;;;;;;;;;;24.21;29.06;99383.72;4477810;32;34468;-85
2022/05/16 03:02:51;;;;;;;;;;;;;;;24.60;29.06;99391.00;4469260;32;34061;-85
2022/05/16 03:05:18;;;;;;;;;;;;;;;24.79;28.51;99375.19;4469771;32;33088;-86
2022/05/16 03:07:47;;;;;;;;;;;;;;;24.95;28.71;99375.41;4456203;32;34306;-84
2022/05/16 03:10:15;;;;;;;;;;;;;;;23.91;29.35;99391.06;4482269;32;34232;-85
2022/05/16 03:12:45;;;;;;;;;;;;;;;23.46;30.20;99385.66;4482230;32;33952;-84
2022/05/16 03:15:13;;;;;;;;;;;;;;;22.58;31.36;99382.50;4469288;32;32926;-84
2022/05/16 03:17:42;;;;;;;;;;;;;;;22.20;32.37;99384.59;4482067;32;34341;-85
2022/05/16 03:20:10;;;;;;;;;;;;;;;23.35;30.66;99382.53;4476051;32;34475;-85
2022/05/16 03:22:37;;;;;;;;;;;;;;;23.49;30.09;99377.63;4468672;32;35181;-84
2022/05/16 03:25:05;;;;;;;;;;;;;;;22.82;31.33;99386.97;4468345;32;33578;-86
2022/05/16 03:27:32;;;;;;;;;;;;;;;23.85;30.27;99380.69;4483791;32;33978;-85
2022/05/16 03:29:59;;;;;;;;;;;;;;;23.81;30.15;99380.88;4483618;32;33878;-86
2022/05/16 03:32:27;;;;;;;;;;;;;;;23.94;29.80;99382.13;4481208;32;34044;-85
2022/05/16 03:34:55;;;;;;;;;;;;;;;24.07;29.54;99380.72;4455680;32;34390;-85
2022/05/16 03:37:22;;;;;;;;;;;;;;;24.40;29.41;99380.38;4468570;32;34090;-85
2022/05/16 03:42:35;;;;;;;;;;;;;;;23.59;30.59;99384.28;4468479;32;34957;-85
2022/05/16 03:45:04;;;;;;;;;;;;;;;24.04;30.51;99386.16;4468974;32;33752;-84
2022/05/16 03:47:31;;;;;;;;;;;;;;;24.12;29.63;99378.75;4454027;32;35129;-85
2022/05/16 03:49:58;;;;;;;;;;;;;;;23.39;31.12;99377.06;4467794;32;34041;-85
2022/05/16 03:52:26;;;;;;;;;;;;;;;24.07;29.70;99382.53;4468947;32;35021;-85
2022/05/16 03:54:53;;;;;;;;;;;;;;;23.81;30.11;99383.53;4468205;32;33133;-85
2022/05/16 03:57:22;;;;;;;;;;;;;;;23.25;31.40;99379.34;4468179;32;34058;-85
2022/05/16 03:59:49;;;;;;;;;;;;;;;23.24;31.45;99391.72;4467731;32;34406;-85
2022/05/16 04:02:16;;;;;;;;;;;;;;;23.06;31.61;99389.72;4467993;32;33996;-85
2022/05/16 04:04:44;;;;;;;;;;;;;;;23.39;31.71;99386.81;4481959;32;32984;-85
2022/05/16 04:07:11;;;;;;;;;;;;;;;23.26;30.95;99399.59;4483438;32;33869;-86
2022/05/16 04:09:38;;;;;;;;;;;;;;;23.41;31.13;99395.53;4483558;32;35321;-86
2022/05/16 04:12:06;;;;;;;;;;;;;;;23.99;30.07;99404.88;4483536;32;34398;-86
2022/05/16 04:14:33;;;;;;;;;;;;;;;;;;4481681;32;33446;-85
2022/05/16 04:17:00;;;;;;;;;;;;;;;24.24;29.55;99409.19;4473180;32;35107;-85
2022/05/16 04:19:28;;;;;;;;;;;;;;;23.53;29.85;99406.56;4476647;32;35337;-87
2022/05/16 04:21:55;;;;;;;;;;;;;;;23.25;30.83;99411.94;4473971;32;34333;-84
2022/05/16 04:24:22;;;;;;;;;;;;;;;23.98;29.29;99418.16;4477798;32;33354;-84
2022/05/16 04:26:50;;;;;;;;;;;;;;;23.15;30.68;99409.72;4481670;32;33601;-82
2022/05/16 04:29:17;;;;;;;;;;;;;;;24.11;29.98;99415.91;4468537;32;34145;-87
2022/05/16 04:31:45;;;;;;;;;;;;;;;23.62;29.90;99409.78;4481048;32;33438;-85
2022/05/16 04:34:12;;;;;;;;;;;;;;;22.51;31.54;99423.25;4471706;32;33559;-86
2022/05/16 04:36:40;;;;;;;;;;;;;;;22.47;32.16;99417.19;4474682;32;33991;-85
2022/05/16 04:39:07;;;;;;;;;;;;;;;22.37;32.08;99420.16;4480862;32;33797;-85
2022/05/16 04:44:21;;;;;;;;;;;;;;;22.02;32.52;99420.31;4470552;32;33250;-86
2022/05/16 04:46:49;;;;;;;;;;;;;;;22.39;31.89;99423.59;4454511;32;33944;-85
2022/05/16 04:49:16;;;;;;;;;;;;;;;23.08;30.55;99414.34;4482388;32;35260;-85
2022/05/16 04:51:43;;;;;;;;;;;;;;;23.13;30.90;99417.66;4471244;32;34367;-85
2022/05/16 04:54:12;;;;;;;;;;;;;;;22.91;30.82;99416.63;4472740;32;32904;-85
2022/05/16 04:56:39;;;;;;;;;;;;;;;23.46;30.10;99406.84;4458823;32;33652;-83
2022/05/16 04:59:07;;;;;;;;;;;;;;;23.52;30.35;99417.19;4473642;32;33959;-84
2022/05/16 05:01:34;;;;;;;;;;;;;;;23.41;30.18;99424.63;4468837;32;33996;-84
2022/05/16 05:04:01;;;;;;;;;;;;;;;24.01;29.57;99434.78;4482273;32;33616;-84
2022/05/16 05:06:29;;;;;;;;;;;;;;;24.26;28.66;99424.13;4481092;32;34299;-85
2022/05/16 05:08:56;;;;;;;;;;;;;;;24.47;28.60;99427.75;4468868;32;34135;-85
2022/05/16 05:14:32;;;;;;;;;;;;;;;24.36;29.01;99426.41;4433943;32;33181;-86
2022/05/16 05:16:59;;;;;;;;;;;;;;;24.82;27.94;99421.94;4433818;32;33974;-85
2022/05/16 05:19:26;;;;;;;;;;;;;;;24.15;28.63;99431.63;4450659;32;33908;-86
2022/05/16 05:21:54;;;;;;;;;;;;;;;23.57;30.07;99423.19;4467172;32;34377;-85
2022/05/16 05:24:21;;;;;;;;;;;;;;;25.16;27.72;99419.63;4467029;32;33085;-85
2022/05/16 05:26:48;;;;;;;;;;;;;;;25.44;27.40;99421.94;4466889;32;33693;-85
2022/05/16 05:29:16;;;;;;;;;;;;;;;25.78;26.58;99425.75;4467149;32;34395;-86
2022/05/16 05:31:44;;;;;;;;;;;;;;;24.78;27.89;99431.81;4466893;32;34348;-85
2022/05/16 05:34:11;;;;;;;;;;;;;;;24.99;28.07;99424.75;4467936;32;33202;-85
2022/05/16 05:36:39;;;;;;;;;;;;;;;24.38;28.83;99433.38;4466934;32;34798;-86
2022/05/16 05:39:07;;;;;;;;;;;;;;;24.09;29.31;99430.97;4466963;32;34408;-86
2022/05/16 05:41:34;;;;;;;;;;;;;;;24.32;28.38;99435.38;4466996;32;34545;-85
2022/05/16 05:44:01;;;;;;;;;;;;;;;23.77;29.02;99433.06;4468453;32;33602;-85
2022/05/16 05:46:33;;;;;;;;;;;;;;;24.42;28.97;99434.16;4468628;32;34216;-86
2022/05/16 05:49:00;;;;;;;;;;;;;;;24.19;28.65;99441.19;4467996;32;34092;-85
2022/05/16 05:51:28;;;;;;;;;;;;;;;23.24;29.53;99436.69;4468032;32;34231;-85
2022/05/16 05:53:55;;;;;;;;;;;;;;;24.51;28.29;99441.75;4481373;32;33310;-84
2022/05/16 05:56:22;;;;;;;;;;;;;;;24.58;28.54;99440.56;4483622;32;34814;-84
2022/05/16 05:58:50;;;;;;;;;;;;;;;24.15;28.44;99444.00;4478539;32;34469;-83
2022/05/16 06:01:17;;;;;;;;;;;;;;;25.33;27.42;99434.81;4478873;31;34136;-84
2022/05/16 06:03:44;;;;;;;;;;;;;;;25.84;26.85;99444.09;4484572;32;33172;-85
2022/05/16 06:06:12;;;;;;;;;;;;;;;24.55;27.69;99446.00;4469319;32;34364;-85
2022/05/16 06:08:39;;;;;;;;;;;;;;;25.49;27.27;99442.94;4481886;32;34199;-85
2022/05/16 06:11:07;;;;;;;;;;;;;;;24.70;28.39;99449.81;4470277;32;34191;-85
2022/05/16 06:13:34;;;;;;;;;;;;;;;25.22;27.02;99448.53;4484361;31;33237;-84
2022/05/16 06:16:01;;;;;;;;;;;;;;;24.56;27.91;99455.69;4484194;32;34943;-87
2022/05/16 06:18:29;;;;;;;;;;;;;;;24.44;28.36;99448.22;4456486;32;34394;-85
2022/05/16 06:20:56;;;;;;;;;;;;;;;24.85;27.46;99451.84;4468471;32;33894;-86
2022/05/16 06:23:23;;;;;;;;;;;;;;;25.14;26.64;99440.03;4472620;32;33472;-86
2022/05/16 06:25:51;;;;;;;;;;;;;;;25.00;27.10;99447.69;4475776;32;35123;-85
2022/05/16 06:28:19;;;;;;;;;;;;;;;25.85;26.92;99443.16;4468850;32;34469;-85
2022/05/16 06:30:47;;;;;;;;;;;;;;;24.42;27.53;99445.59;4468806;32;34184;-85
2022/05/16 06:33:15;;;;;;;;;;;;;;;24.90;27.97;99443.69;4454400;32;32510;-92
2022/05/16 06:35:43;;;;;;;;;;;;;;;24.16;29.17;99449.22;4454278;32;33886;-86
2022/05/16 06:38:18;;;;;;;;;;;;;;;24.55;28.15;99453.06;4479935;32;35204;-85
2022/05/16 06:40:46;;;;;;;;;;;;;;;25.09;26.88;99441.16;4482423;31;34368;-86
2022/05/16 06:43:15;;;;;;;;;;;;;;;24.87;27.34;99435.88;4479073;32;33428;-86
2022/05/16 06:45:42;;;;;;;;;;;;;;;24.95;26.70;99437.25;4469922;32;34345;-86
2022/05/16 06:48:10;;;;;;;;;;;;;;;26.50;26.70;99433.06;4460514;31;34282;-86
2022/05/16 06:50:37;;;;;;;;;;;;;;;26.35;25.58;99431.09;4483891;32;33754;-85
2022/05/16 06:53:05;;;;;;;;;;;;;;;25.61;26.40;99431.81;4483611;31;33280;-86
2022/05/16 06:55:32;;;;;;;;;;;;;;;26.58;26.42;99435.34;4483869;32;34280;-86
2022/05/16 06:57:59;;;;;;;;;;;;;;;27.12;26.32;99439.75;4481016;32;34209;-87
2022/05/16 07:00:27;;;;;;;;;;;;;;;26.04;26.92;99443.16;4473397;32;34687;-84
2022/05/16 07:02:54;;;;;;;;;;;;;;;26.25;25.52;99437.78;4468209;32;33119;-85
2022/05/16 07:05:42;;;;;;;;;;;;;;;26.20;26.58;99438.00;4468340;32;35192;-85
2022/05/16 07:08:09;;;;;;;;;;;;;;;26.85;25.26;99435.78;4467264;32;34365;-85
2022/05/16 07:10:36;;;;;;;;;;;;;;;26.32;25.61;99439.22;4468167;32;34854;-85
2022/05/16 07:13:04;;;;;;;;;;;;;;;26.74;25.90;99446.94;4468240;32;32875;-85
2022/05/16 07:15:31;;;;;;;;;;;;;;;27.18;25.45;99441.25;4468381;32;33949;-85
2022/05/16 07:17:59;;;;;;;;;;;;;;;28.60;25.52;99443.38;4468411;32;33803;-86
2022/05/16 07:20:27;;;;;;;;;;;;;;;28.56;23.53;99440.06;4468128;32;35076;-86
2022/05/16 07:22:58;;;;;;;;;;;;;;;27.05;25.78;99448.97;4468327;32;33563;-85
2022/05/16 07:25:26;;;;;;;;;;;;;;;27.01;25.00;99457.16;4468456;32;33605;-85
2022/05/16 07:27:57;;;;;;;;;;;;;;;26.86;26.15;99454.34;4468155;32;34541;-86
2022/05/16 07:30:24;;;;;;;;;;;;;;;26.65;26.03;99455.38;4468158;32;34364;-86
2022/05/16 07:32:52;;;;;;;;;;;;;;;27.80;23.71;99442.44;4468405;32;33624;-86
2022/05/16 07:35:22;;;;;;;;;;;;;;;27.45;23.17;99441.59;4454027;32;34106;-85
2022/05/16 07:37:49;;;;;;;;;;;;;;;28.22;23.41;99448.16;4454313;32;34086;-86
2022/05/16 07:40:17;;;;;;;;;;;;;;;27.82;23.82;99445.03;4467903;32;34587;-86
2022/05/16 07:42:44;;;;;;;;;;;;;;;28.72;24.53;99448.03;4467889;32;33241;-85
2022/05/16 07:45:11;;;;;;;;;;;;;;;28.12;25.27;99451.34;4468003;32;34854;-85
2022/05/16 07:47:39;;;;;;;;;;;;;;;27.50;24.64;99452.00;4468513;32;33934;-85
2022/05/16 07:50:07;;;;;;;;;;;;;;;27.36;25.73;99450.09;4468333;32;34297;-86
2022/05/16 07:52:34;;;;;;;;;;;;;;;28.68;23.77;99448.28;4467912;32;33974;-85
2022/05/16 07:55:02;;;;;;;;;;;;;;;29.10;22.20;99447.66;4467924;32;35147;-85
2022/05/16 07:57:30;;;;;;;;;;;;;;;29.33;22.17;99451.63;4468006;32;34496;-86
2022/05/16 07:59:57;;;;;;;;;;;;;;;29.71;22.39;99448.47;4467855;32;34025;-86
2022/05/16 08:02:25;;;;;;;;;;;;;;;28.72;21.95;99458.72;4479771;32;32814;-85
2022/05/16 08:04:52;;;;;;;;;;;;;;;28.65;21.72;99464.50;4453965;32;33898;-86
2022/05/16 08:07:20;;;;;;;;;;;;;;;29.28;21.59;99453.69;4467741;32;35190;-86
2022/05/16 08:12:37;;;;;;;;;;;;;;;28.50;22.82;99453.72;4467920;32;33134;-86
2022/05/16 08:15:04;;;;;;;;;;;;;;;29.73;21.70;99447.41;4453816;32;34575;-85
2022/05/16 08:17:32;;;;;;;;;;;;;;;28.66;21.83;99458.19;4453855;32;35204;-85
2022/05/16 08:20:00;;;;;;;;;;;;;;;28.26;22.32;99455.06;4467466;32;34903;-86
2022/05/16 08:22:28;;;;;;;;;;;;;;;28.48;22.28;99460.94;4468054;32;34168;-85
2022/05/16 08:24:56;;;;;;;;;;;;;;;28.01;22.10;99456.41;4467866;32;34377;-86
2022/05/16 08:27:27;;;;;;;;;;;;;;;28.48;22.75;99454.75;4467742;32;34394;-87
2022/05/16 08:29:54;;;;;;;;;;;;;;;29.68;22.33;99456.66;4467811;32;33634;-86
2022/05/16 08:32:23;;;;;;;;;;;;;;;29.17;22.05;99445.44;4467678;32;33470;-86
2022/05/16 08:34:51;;;;;;;;;;;;;;;28.13;23.09;99461.06;4453898;32;34362;-86
2022/05/16 08:40:05;;;;;;;;;;;;;;;28.49;22.49;99460.03;4455717;32;34597;-85
2022/05/16 08:42:38;;;;;;;;;;;;;;;27.94;22.33;99455.03;4467609;32;34027;-87
2022/05/16 08:45:14;;;;;;;;;;;;;;;29.58;21.09;99449.19;4453651;32;34382;-86
2022/05/16 08:47:51;;;;;;;;;;;;;;;28.07;23.38;99458.75;4453579;32;35168;-85
2022/05/16 08:50:21;;;;;;;;;;;;;;;27.22;23.03;99452.59;4467264;32;34537;-85
2022/05/16 08:53:05;;;;;;;;;;;;;;;28.50;22.39;99453.72;4453858;32;33380;-85
2022/05/16 08:55:34;;;;;;;;;;;;;;;27.46;23.31;99448.66;4453111;32;34185;-85
2022/05/16 08:58:21;;;;;;;;;;;;;;;28.38;24.30;99454.44;4453345;32;33794;-85
2022/05/16 09:00:53;;;;;;;;;;;;;;;29.54;21.80;99450.31;4461496;32;33636;-85
2022/05/16 09:03:40;;;;;;;;;;;;;;;29.67;22.23;99452.28;4467488;32;33037;-85
2022/05/16 09:06:18;;;;;;;;;;;;;;;29.74;22.08;99448.28;4467526;32;34966;-85
2022/05/16 09:09:06;;;;;;;;;;;;;;;29.63;21.57;99454.28;4453108;32;35064;-87
2022/05/16 09:11:47;;;;;;;;;;;;;;;29.93;22.71;99462.22;4452983;32;34337;-86
2022/05/16 09:14:34;;;;;;;;;;;;;;;30.79;21.83;99451.41;4453544;32;33383;-85
2022/05/16 09:17:08;;;;;;;;;;;;;;;30.69;21.62;99452.94;4461685;32;34823;-85
2022/05/16 09:19:35;;;;;;;;;;;;;;;30.23;21.41;99439.84;4453422;32;34042;-85
2022/05/16 09:22:06;;;;;;;;;;;;;;;30.42;21.47;99443.09;4453016;32;34254;-85
2022/05/16 09:24:35;;;;;;;;;;;;;;;28.62;22.98;99450.34;4452998;32;33948;-85
2022/05/16 09:27:12;;;;;;;;;;;;;;;28.51;23.56;99443.91;4467081;32;33661;-85
2022/05/16 09:29:42;;;;;;;;;;;;;;;29.79;22.14;99440.81;4453167;32;33927;-85
2022/05/16 09:32:25;;;;;;;;;;;;;;;28.88;23.62;99442.66;4455200;32;33748;-85
2022/05/16 09:34:53;;;;;;;;;;;;;;;28.71;22.71;99442.78;4455068;32;33436;-85
2022/05/16 09:37:20;;;;;;;;;;;;;;;29.82;22.30;99435.28;4469031;32;34073;-86
2022/05/16 09:39:49;;;;;;;;;;;;;;;30.96;21.41;99427.06;4469121;32;34381;-84
2022/05/16 09:42:36;;;;;;;;;;;;;;;30.77;21.10;99423.91;4469012;32;33722;-85
2022/05/16 09:45:07;;;;;;;;;;;;;;;30.71;21.46;99432.28;4468962;32;33126;-86
2022/05/16 09:47:35;;;;;;;;;;;;;;;31.41;19.24;99424.91;4454702;32;35016;-85
2022/05/16 09:50:02;;;;;;;;;;;;;;;31.58;20.63;99414.84;4468789;32;35344;-85
2022/05/16 09:52:36;;;;;;;;;;;;;;;30.71;22.06;99419.75;4468625;32;34114;-85
2022/05/16 09:55:05;;;;;;;;;;;;;;;31.24;21.33;99419.81;4468810;32;33435;-86
2022/05/16 09:57:58;;;;;;;;;;;;;;;31.84;21.13;99418.34;4468956;32;34253;-85
2022/05/16 10:00:41;;;;;;;;;;;;;;;30.59;20.78;99420.56;4467571;32;35189;-85
2022/05/16 10:03:20;;;;;;;;;;;;;;;30.25;21.13;99411.22;4468559;32;34296;-86
2022/05/16 10:05:50;;;;;;;;;;;;;;;31.18;21.27;99409.53;4454747;32;33155;-86
2022/05/16 10:08:30;;;;;;;;;;;;;;;30.48;21.01;99405.22;4468448;32;34412;-85
2022/05/16 10:10:59;;;;;;;;;;;;;;;30.77;21.40;99402.47;4455013;32;34641;-84
2022/05/16 10:13:27;;;;;;;;;;;;;;;30.77;20.63;99410.50;4442415;32;34189;-85
2022/05/16 10:15:54;;;;;;;;;;;;;;;29.90;21.08;99406.28;4454685;32;33417;-86
2022/05/16 10:18:22;;;;;;;;;;;;;;;30.00;22.04;99406.53;4468661;32;35279;-85
2022/05/16 10:20:54;;;;;;;;;;;;;;;30.35;21.38;99395.44;4454277;32;35345;-85
2022/05/16 10:23:22;;;;;;;;;;;;;;;29.08;22.38;99397.00;4454842;32;34181;-85
2022/05/16 10:25:51;;;;;;;;;;;;;;;29.64;22.88;99404.38;4454604;32;34245;-85
2022/05/16 10:28:39;;;;;;;;;;;;;;;29.61;22.34;99404.56;4454751;32;34206;-85
2022/05/16 10:34:15;;;;;;;;;;;;;;;29.68;21.83;99406.75;4456847;32;34073;-84
2022/05/16 10:36:43;;;;;;;;;;;;;;;29.47;21.89;99397.34;4468512;32;33393;-85
2022/05/16 10:39:11;;;;;;;;;;;;;;;29.96;20.99;99397.84;4454535;32;33918;-85
2022/05/16 10:41:57;;;;;;;;;;;;;;;31.16;20.02;99401.59;4454369;32;34341;-85
2022/05/16 10:44:29;;;;;;;;;;;;;;;29.92;21.63;99398.16;4468635;32;33852;-84
2022/05/16 10:47:08;;;;;;;;;;;;;;;28.64;22.61;99402.28;4454739;32;33073;-85
2022/05/16 10:49:37;;;;;;;;;;;;;;;30.41;20.52;99390.53;4454377;32;33882;-85
2022/05/16 10:52:24;;;;;;;;;;;;;;;30.94;20.36;99387.94;4454877;32;34412;-84
2022/05/16 10:54:52;;;;;;;;;;;;;;;31.39;19.82;99378.59;4468490;32;34018;-88
2022/05/16 10:57:37;;;;;;;;;;;;;;;30.36;20.56;99389.13;4468464;32;34178;-85
2022/05/16 11:00:14;;;;;;;;;;;;;;;30.81;20.15;99379.03;4454827;32;33988;-86
2022/05/16 11:03:01;;;;;;;;;;;;;;;31.43;21.10;99374.72;4454566;32;35240;-88
2022/05/16 11:05:39;;;;;;;;;;;;;;;30.75;20.48;99380.28;4468134;32;34042;-85
2022/05/16 11:08:06;;;;;;;;;;;;;;;30.65;21.86;99377.38;4454682;32;34036;-85
2022/05/16 11:10:36;;;;;;;;;;;;;;;31.68;20.56;99378.38;4468296;32;34162;-85
2022/05/16 11:13:25;;;;;;;;;;;;;;;31.73;20.81;99377.06;4454124;32;35383;-86
2022/05/16 11:15:52;;;;;;;;;;;;;;;32.23;21.54;99369.91;4454474;32;34254;-85
2022/05/16 11:18:22;;;;;;;;;;;;;;;31.58;19.62;99369.28;4468337;32;34209;-85
2022/05/16 11:20:58;;;;;;;;;;;;;;;31.73;19.97;99371.72;4467995;32;34185;-85
2022/05/16 11:23:28;;;;;;;;;;;;;;;32.03;21.41;99364.28;4454503;32;34157;-83
2022/05/16 11:26:04;;;;;;;;;;;;;;;32.58;19.81;99365.59;4467150;32;34070;-84
2022/05/16 11:31:42;;;;;;;;;;;;;;;32.90;20.21;99363.16;4456251;32;34318;-84
2022/05/16 11:34:10;;;;;;;;;;;;;;;32.34;20.89;99365.56;4454025;32;35658;-84
2022/05/16 11:37:05;;;;;;;;;;;;;;;33.24;18.60;99355.22;4453980;32;34355;-86
2022/05/16 11:39:51;;;;;;;;;;;;;;;33.39;18.95;99344.13;4445601;32;34420;-84
2022/05/16 11:42:33;;;;;;;;;;;;;;;33.42;19.91;99343.03;4464563;32;33935;-84
2022/05/16 11:45:24;;;;;;;;;;;;;;;32.89;19.63;99345.34;4454036;32;34387;-83
2022/05/16 11:47:56;;;;;;;;;;;;;;;33.53;18.96;99337.69;4460820;32;34419;-85
2022/05/16 11:50:54;;;;;;;;;;;;;;;33.43;20.39;99334.84;4451444;32;33298;-82
2022/05/16 11:53:41;;;;;;;;;;;;;;;33.43;19.86;99337.53;4447816;32;34351;-83
2022/05/16 12:02:06;;;;;;;;;;;;;;;33.63;18.82;99335.09;4443713;32;34369;-84
2022/05/16 12:04:47;;;;;;;;;;;;;;;33.42;19.91;99324.22;4451042;32;34359;-84
2022/05/16 12:07:35;;;;;;;;;;;;;;;33.51;18.93;99319.97;4452221;32;34398;-86
2022/05/16 12:10:12;;;;;;;;;;;;;;;32.52;20.34;99317.75;4446797;32;35025;-84
2022/05/16 12:12:43;;;;;;;;;;;;;;;31.22;21.69;99325.31;4440689;32;33476;-84
2022/05/16 12:15:16;;;;;;;;;;;;;;;32.38;21.10;99321.44;4441951;32;35149;-86
2022/05/16 12:17:55;;;;;;;;;;;;;;;33.12;20.11;99308.69;4451919;32;34301;-85
2022/05/16 12:20:37;;;;;;;;;;;;;;;33.73;19.84;99311.03;4460176;32;33659;-85
2022/05/16 12:23:05;;;;;;;;;;;;;;;32.92;20.99;99315.53;4449176;32;33465;-85
2022/05/16 12:25:40;;;;;;;;;;;;;;;33.33;20.02;99312.34;4452043;32;34942;-85
2022/05/16 12:28:15;;;;;;;;;;;;;;;33.15;20.85;99314.66;4450604;32;34197;-85
2022/05/16 12:30:44;;;;;;;;;;;;;;;33.09;19.82;99303.53;4451959;32;35047;-84
2022/05/16 12:33:30;;;;;;;;;;;;;;;34.01;18.94;99296.22;4463225;32;34161;-86
2022/05/16 12:35:58;;;;;;;;;;;;;;;32.78;19.79;99286.25;4452202;32;34420;-84
2022/05/16 12:38:25;;;;;;;;;;;;;;;32.70;21.01;99290.38;4452002;32;34255;-84
2022/05/16 12:40:57;;;;;;;;;;;;;;;30.50;22.72;99280.25;4463351;32;34359;-85
2022/05/16 12:43:39;;;;;;;;;;;;;;;31.73;20.89;99282.41;4463578;32;34093;-84
2022/05/16 12:46:16;;;;;;;;;;;;;;;32.54;20.81;99270.16;4463165;32;33994;-85
2022/05/16 12:48:44;;;;;;;;;;;;;;;32.96;20.58;99258.00;4453936;32;34510;-84
2022/05/16 12:51:23;;;;;;;;;;;;;;;33.11;21.02;99259.47;4458868;32;34169;-87
2022/05/16 12:54:10;;;;;;;;;;;;;;;33.51;20.10;99258.12;4467528;32;34266;-85
2022/05/16 12:56:47;;;;;;;;;;;;;;;32.91;20.25;99252.06;4467360;32;35208;-87
2022/05/16 12:59:24;;;;;;;;;;;;;;;33.24;20.98;99245.91;4453855;32;34355;-86
2022/05/16 13:01:58;;;;;;;;;;;;;;;33.11;20.65;99242.47;4467087;32;34171;-85
2022/05/16 13:04:47;;;;;;;;;;;;;;;33.53;19.66;99246.28;4452909;32;33492;-85
2022/05/16 13:07:45;;;;;;;;;;;;;;;34.18;19.85;99231.09;4474791;32;35121;-86
2022/05/16 13:10:29;;;;;;;;;;;;;;;32.50;21.21;99231.97;4412549;32;34073;-84
2022/05/16 13:12:56;;;;;;;;;;;;;;;33.75;20.57;99231.94;4467292;32;33941;-83
2022/05/16 13:15:37;;;;;;;;;;;;;;;33.97;20.78;99225.63;4467246;32;33417;-87
2022/05/16 13:18:08;;;;;;;;;;;;;;;32.44;21.49;99229.78;4467272;32;34202;-84
2022/05/16 13:20:37;;;;;;;;;;;;;;;32.43;20.36;99215.50;4467269;32;34253;-86
2022/05/16 13:23:04;;;;;;;;;;;;;;;33.62;20.38;99225.88;4457420;32;34224;-86
2022/05/16 13:29:21;;;;;;;;;;;;;;;33.96;20.08;99226.63;4482792;32;33239;-85
2022/05/16 13:31:06;;;;;;;;;;;;;;;33.45;20.44;99227.19;4479153;32;34440;-86
2022/05/16 13:33:35;;;;;;;;;;;;;;;33.20;20.00;99231.00;4479212;32;34964;-85
2022/05/16 13:36:32;;;;;;;;;;;;;;;33.17;20.68;99231.25;4453861;32;34352;-89
2022/05/16 13:39:04;;;;;;;;;;;;;;;33.24;21.29;99221.72;4459994;32;34870;-85
2022/05/16 13:41:32;;;;;;;;;;;;;;;33.40;21.46;99224.88;4452705;32;33930;-88